createdAt,value
2023-04-07T00:02:04.337Z,3.30
2023-04-07T00:04:31.330Z,3.40
2023-04-07T00:06:58.275Z,3.47
2023-04-07T00:09:25.173Z,3.30
2023-04-07T00:11:52.060Z,3.50
2023-04-07T00:14:18.922Z,3.50
2023-04-07T00:16:45.814Z,3.80
2023-04-07T00:19:12.643Z,3.60
2023-04-07T00:21:39.539Z,3.72
2023-04-07T00:24:06.521Z,3.27
2023-04-07T00:26:33.435Z,3.60
2023-04-07T00:29:00.443Z,3.20
2023-04-07T00:31:27.465Z,3.50
2023-04-07T00:33:54.585Z,5.57
2023-04-07T00:36:21.839Z,5.07
2023-04-07T00:38:48.769Z,4.10
2023-04-07T00:41:15.630Z,3.53
2023-04-07T00:43:42.533Z,3.40
2023-04-07T00:46:09.443Z,2.92
2023-04-07T00:48:37.283Z,3.40
2023-04-07T00:51:05.230Z,3.00
2023-04-07T00:53:32.165Z,3.10
2023-04-07T00:55:59.262Z,3.43
2023-04-07T00:58:26.289Z,3.47
2023-04-07T01:01:08.501Z,4.32
2023-04-07T01:03:49.609Z,4.63
2023-04-07T01:06:20.450Z,3.83
2023-04-07T01:09:25.592Z,3.30
2023-04-07T01:12:17.391Z,3.20
2023-04-07T01:14:54.358Z,3.38
2023-04-07T01:17:24.010Z,3.22
2023-04-07T01:19:55.979Z,3.50
2023-04-07T01:22:28.974Z,3.40
2023-04-07T01:25:13.786Z,3.60
2023-04-07T01:27:52.721Z,3.70
2023-04-07T01:30:20.657Z,3.30
2023-04-07T01:32:52.131Z,3.17
2023-04-07T01:35:20.082Z,3.30
2023-04-07T01:37:48.519Z,3.60
2023-04-07T01:40:16.471Z,3.50
2023-04-07T01:42:44.864Z,3.05
2023-04-07T01:45:12.449Z,3.65
2023-04-07T01:47:40.135Z,3.40
2023-04-07T01:50:08.123Z,3.75
2023-04-07T01:52:36.245Z,3.60
2023-04-07T01:55:05.369Z,3.20
2023-04-07T01:57:32.290Z,3.60
2023-04-07T01:59:59.467Z,3.67
2023-04-07T02:02:26.528Z,3.55
2023-04-07T02:05:03.854Z,3.50
2023-04-07T02:07:45.667Z,3.50
2023-04-07T02:10:15.440Z,3.50
2023-04-07T02:12:44.286Z,3.30
2023-04-07T02:15:12.396Z,3.70
2023-04-07T02:17:42.744Z,3.45
2023-04-07T02:20:11.845Z,3.70
2023-04-07T02:22:39.909Z,3.80
2023-04-07T02:25:22.992Z,3.55
2023-04-07T02:27:50.182Z,3.85
2023-04-07T02:30:17.278Z,3.80
2023-04-07T02:32:44.520Z,4.07
2023-04-07T02:35:11.536Z,3.75
2023-04-07T02:37:39.146Z,3.70
2023-04-07T02:40:07.405Z,3.93
2023-04-07T02:42:34.465Z,3.70
2023-04-07T02:45:01.341Z,4.33
2023-04-07T02:47:28.288Z,3.90
2023-04-07T02:49:55.197Z,3.90
2023-04-07T02:52:22.083Z,4.00
2023-04-07T02:54:49.072Z,4.10
2023-04-07T02:57:15.962Z,4.40
2023-04-07T02:59:42.877Z,4.00
2023-04-07T03:02:09.884Z,4.07
2023-04-07T03:04:36.827Z,3.80
2023-04-07T03:07:03.817Z,4.20
2023-04-07T03:09:30.726Z,4.05
2023-04-07T03:11:57.651Z,4.30
2023-04-07T03:14:24.581Z,3.88
2023-04-07T03:16:51.498Z,4.10
2023-04-07T03:19:18.411Z,4.00
2023-04-07T03:21:45.296Z,3.72
2023-04-07T03:24:12.216Z,4.20
2023-04-07T03:26:39.170Z,4.22
2023-04-07T03:29:06.057Z,4.30
2023-04-07T03:31:32.946Z,4.30
2023-04-07T03:33:59.818Z,4.03
2023-04-07T03:36:26.735Z,4.20
2023-04-07T03:38:53.658Z,4.18
2023-04-07T03:41:20.600Z,4.30
2023-04-07T03:43:47.508Z,4.03
2023-04-07T03:46:14.437Z,3.83
2023-04-07T03:48:41.412Z,4.35
2023-04-07T03:51:08.342Z,4.30
2023-04-07T03:53:35.289Z,4.10
2023-04-07T03:56:02.302Z,3.90
2023-04-07T03:58:29.282Z,3.70
2023-04-07T04:00:56.153Z,4.05
2023-04-07T04:03:23.249Z,4.07
2023-04-07T04:05:50.203Z,3.90
2023-04-07T04:08:17.088Z,4.20
2023-04-07T04:10:43.995Z,3.90
2023-04-07T04:13:10.852Z,4.10
2023-04-07T04:15:37.799Z,4.18
2023-04-07T04:18:04.740Z,4.00
2023-04-07T04:20:31.642Z,4.00
2023-04-07T04:22:58.503Z,4.20
2023-04-07T04:25:25.346Z,4.70
2023-04-07T04:27:52.253Z,4.70
2023-04-07T04:30:19.189Z,4.70
2023-04-07T04:32:46.142Z,4.80
2023-04-07T04:35:13.200Z,4.88
2023-04-07T04:37:40.121Z,5.20
2023-04-07T04:40:07.690Z,5.40
2023-04-07T04:42:36.592Z,5.40
2023-04-07T04:45:03.767Z,5.10
2023-04-07T04:47:30.728Z,5.38
2023-04-07T04:49:57.685Z,5.70
2023-04-07T04:52:24.629Z,5.40
2023-04-07T04:54:51.500Z,6.30
2023-04-07T04:57:18.455Z,6.40
2023-04-07T04:59:45.355Z,5.90
2023-04-07T05:02:12.285Z,5.95
2023-04-07T05:04:39.367Z,6.40
2023-04-07T05:07:06.411Z,6.60
2023-04-07T05:09:33.267Z,6.57
2023-04-07T05:12:00.142Z,7.00
2023-04-07T05:14:27.003Z,7.03
2023-04-07T05:16:53.890Z,7.05
2023-04-07T05:19:21.216Z,7.00
2023-04-07T05:21:48.105Z,6.65
2023-04-07T05:24:15.048Z,6.30
2023-04-07T05:26:42.034Z,7.20
2023-04-07T05:29:08.905Z,6.60
2023-04-07T05:31:35.938Z,6.93
2023-04-07T05:34:03.022Z,6.90
2023-04-07T05:36:30.047Z,6.60
2023-04-07T05:38:57.008Z,6.97
2023-04-07T05:41:24.101Z,7.13
2023-04-07T05:43:51.206Z,6.90
2023-04-07T05:46:18.596Z,6.90
2023-04-07T05:48:45.519Z,6.75
2023-04-07T05:51:12.391Z,6.75
2023-04-07T05:53:39.322Z,7.30
2023-04-07T05:56:06.284Z,6.70
2023-04-07T05:58:33.190Z,7.00
2023-04-07T06:01:00.256Z,6.60
2023-04-07T06:03:27.397Z,6.55
2023-04-07T06:05:59.083Z,7.00
2023-04-07T06:08:26.012Z,6.97
2023-04-07T06:10:52.986Z,6.47
2023-04-07T06:13:19.834Z,6.70
2023-04-07T06:15:46.759Z,7.30
2023-04-07T06:18:13.656Z,6.40
2023-04-07T06:20:40.566Z,6.90
2023-04-07T06:23:07.534Z,6.15
2023-04-07T06:25:34.467Z,6.57
2023-04-07T06:28:01.386Z,6.30
2023-04-07T06:30:28.241Z,6.70
2023-04-07T06:32:55.189Z,7.10
2023-04-07T06:35:22.189Z,6.30
2023-04-07T06:37:49.115Z,6.40
2023-04-07T06:40:16.031Z,6.43
2023-04-07T06:42:42.922Z,6.57
2023-04-07T06:45:10.368Z,6.20
2023-04-07T06:47:37.270Z,6.10
2023-04-07T06:50:04.754Z,5.80
2023-04-07T06:52:31.591Z,5.90
2023-04-07T06:54:58.470Z,6.10
2023-04-07T06:57:25.372Z,5.70
2023-04-07T06:59:52.250Z,5.75
2023-04-07T07:02:19.432Z,5.63
2023-04-07T07:04:46.522Z,5.22
2023-04-07T07:07:13.372Z,5.60
2023-04-07T07:09:40.267Z,5.43
2023-04-07T07:12:07.287Z,5.60
2023-04-07T07:14:34.174Z,5.43
2023-04-07T07:17:01.083Z,5.10
2023-04-07T07:19:27.954Z,5.50
2023-04-07T07:21:54.972Z,5.45
2023-04-07T07:24:21.821Z,5.72
2023-04-07T07:26:48.702Z,5.70
2023-04-07T07:29:15.629Z,4.97
2023-04-07T07:31:42.714Z,5.43
2023-04-07T07:34:09.583Z,4.30
2023-04-07T07:36:36.407Z,5.03
2023-04-07T07:39:03.252Z,4.20
2023-04-07T07:41:30.128Z,4.47
2023-04-07T07:43:56.975Z,4.20
2023-04-07T07:46:24.131Z,3.92
2023-04-07T07:48:51.062Z,4.10
2023-04-07T07:51:17.996Z,4.30
2023-04-07T07:53:45.820Z,4.50
2023-04-07T07:56:13.460Z,6.22
2023-04-07T07:58:40.434Z,4.30
2023-04-07T08:01:07.411Z,3.85
2023-04-07T08:03:34.321Z,4.00
2023-04-07T08:06:01.254Z,3.45
2023-04-07T08:08:28.134Z,3.60
2023-04-07T08:10:55.006Z,3.70
2023-04-07T08:13:21.909Z,3.60
2023-04-07T08:15:52.365Z,3.20
2023-04-07T08:18:19.269Z,3.63
2023-04-07T08:20:46.831Z,3.28
2023-04-07T08:23:13.690Z,3.30
2023-04-07T08:25:40.580Z,2.70
2023-04-07T08:28:07.436Z,3.00
2023-04-07T08:30:34.376Z,3.25
2023-04-07T08:33:01.319Z,3.30
2023-04-07T08:35:28.218Z,3.20
2023-04-07T08:37:55.063Z,3.40
2023-04-07T08:40:21.957Z,3.08
2023-04-07T08:42:49.375Z,3.20
2023-04-07T08:45:18.120Z,3.10
2023-04-07T08:47:47.171Z,2.90
2023-04-07T08:50:17.484Z,3.00
2023-04-07T08:52:53.075Z,2.42
2023-04-07T08:55:20.326Z,2.40
2023-04-07T08:57:47.931Z,2.10
2023-04-07T09:00:15.325Z,2.50
2023-04-07T09:02:44.004Z,2.30
2023-04-07T09:05:12.079Z,8.18
2023-04-07T09:07:39.661Z,10.30
2023-04-07T09:10:07.522Z,5.20
2023-04-07T09:12:34.751Z,6.07
2023-04-07T09:15:01.736Z,4.73
2023-04-07T09:17:30.101Z,2.97
2023-04-07T09:20:01.177Z,2.75
2023-04-07T09:22:39.472Z,2.70
2023-04-07T09:25:16.827Z,2.75
2023-04-07T09:28:03.773Z,2.50
2023-04-07T09:30:32.528Z,3.35
2023-04-07T09:33:01.391Z,5.00
2023-04-07T09:35:28.867Z,4.10
2023-04-07T09:38:09.583Z,2.20
2023-04-07T09:40:36.995Z,2.10
2023-04-07T09:43:05.646Z,2.30
2023-04-07T09:45:35.390Z,2.28
2023-04-07T09:48:07.784Z,2.00
2023-04-07T09:50:36.709Z,2.63
2023-04-07T09:53:03.757Z,3.50
2023-04-07T09:55:31.410Z,2.70
2023-04-07T09:57:58.382Z,2.20
2023-04-07T10:00:25.960Z,1.77
2023-04-07T10:02:53.198Z,1.90
2023-04-07T10:05:20.470Z,1.70
2023-04-07T10:07:47.734Z,1.77
2023-04-07T10:10:14.692Z,1.57
2023-04-07T10:12:42.427Z,1.90
2023-04-07T10:15:11.551Z,1.87
2023-04-07T10:17:40.320Z,1.80
2023-04-07T10:20:10.101Z,1.70
2023-04-07T10:22:40.939Z,1.50
2023-04-07T10:25:11.500Z,1.70
2023-04-07T10:27:47.851Z,1.80
2023-04-07T10:30:19.060Z,2.00
2023-04-07T10:32:50.877Z,2.03
2023-04-07T10:35:18.415Z,1.95
2023-04-07T10:38:12.320Z,2.10
2023-04-07T10:40:39.991Z,1.80
2023-04-07T10:43:07.837Z,2.83
2023-04-07T10:45:50.035Z,2.40
2023-04-07T10:48:18.593Z,2.00
2023-04-07T10:50:47.058Z,2.00
2023-04-07T10:53:15.682Z,1.90
2023-04-07T10:55:46.641Z,2.00
2023-04-07T10:58:26.353Z,1.90
2023-04-07T11:01:08.363Z,2.23
2023-04-07T11:03:39.948Z,2.80
2023-04-07T11:06:11.509Z,3.60
2023-04-07T11:08:43.761Z,1.70
2023-04-07T11:11:13.935Z,1.58
2023-04-07T11:13:45.294Z,1.80
2023-04-07T11:16:13.137Z,1.60
2023-04-07T11:18:41.082Z,1.60
2023-04-07T11:21:08.779Z,1.80
2023-04-07T11:23:43.019Z,2.05
2023-04-07T11:26:13.979Z,2.00
2023-04-07T11:28:48.192Z,2.20
2023-04-07T11:31:30.778Z,1.98
2023-04-07T11:34:00.203Z,1.80
2023-04-07T11:36:28.463Z,6.43
2023-04-07T11:38:55.547Z,3.10
2023-04-07T11:41:22.392Z,3.28
2023-04-07T11:43:49.937Z,3.10
2023-04-07T11:46:18.661Z,2.30
2023-04-07T11:48:46.375Z,2.20
2023-04-07T11:51:21.977Z,3.42
2023-04-07T11:53:55.676Z,3.10
2023-04-07T11:56:22.829Z,11.70
2023-04-07T11:58:51.207Z,5.03
2023-04-07T12:01:18.757Z,5.78
2023-04-07T12:03:59.816Z,3.08
2023-04-07T12:06:31.182Z,4.30
2023-04-07T12:08:58.103Z,2.50
2023-04-07T12:11:24.972Z,2.45
2023-04-07T12:13:52.096Z,2.43
2023-04-07T12:16:19.414Z,2.30
2023-04-07T12:18:46.261Z,2.50
2023-04-07T12:21:13.154Z,2.70
2023-04-07T12:23:40.052Z,2.53
2023-04-07T12:26:07.044Z,2.70
2023-04-07T12:28:34.172Z,2.20
2023-04-07T12:31:01.030Z,2.20
2023-04-07T12:33:27.892Z,2.50
2023-04-07T12:35:54.803Z,2.90
2023-04-07T12:38:21.705Z,2.55
2023-04-07T12:40:48.640Z,2.67
2023-04-07T12:43:15.645Z,2.30
2023-04-07T12:45:42.504Z,2.10
2023-04-07T12:48:09.473Z,2.67
2023-04-07T12:50:37.015Z,2.67
2023-04-07T12:53:03.864Z,2.60
2023-04-07T12:55:31.063Z,2.40
2023-04-07T12:57:57.915Z,2.47
2023-04-07T13:00:24.843Z,2.80
2023-04-07T13:02:51.954Z,3.20
2023-04-07T13:05:19.071Z,4.00
2023-04-07T13:07:47.379Z,3.63
2023-04-07T13:10:15.666Z,3.60
2023-04-07T13:12:42.556Z,3.27
2023-04-07T13:15:09.502Z,3.17
2023-04-07T13:17:36.492Z,3.10
2023-04-07T13:20:05.013Z,2.60
2023-04-07T13:22:32.289Z,5.40
2023-04-07T13:25:00.216Z,5.72
2023-04-07T13:27:27.808Z,3.70
2023-04-07T13:29:54.689Z,3.28
2023-04-07T13:32:21.575Z,3.10
2023-04-07T13:34:48.461Z,3.00
2023-04-07T13:37:15.316Z,3.10
2023-04-07T13:39:42.217Z,2.95
2023-04-07T13:42:10.176Z,2.72
2023-04-07T13:44:38.383Z,2.50
2023-04-07T13:47:05.325Z,2.70
2023-04-07T13:49:32.300Z,3.10
2023-04-07T13:51:59.222Z,2.65
2023-04-07T13:54:26.173Z,2.65
2023-04-07T13:56:53.060Z,2.42
2023-04-07T13:59:20.136Z,2.80
2023-04-07T14:01:47.145Z,3.00
2023-04-07T14:04:14.190Z,3.03
2023-04-07T14:06:42.000Z,3.00
2023-04-07T14:09:09.052Z,3.30
2023-04-07T14:11:36.920Z,3.25
2023-04-07T14:14:03.795Z,3.20
2023-04-07T14:16:30.786Z,3.42
2023-04-07T14:18:57.743Z,3.58
2023-04-07T14:21:25.059Z,3.70
2023-04-07T14:23:52.220Z,3.30
2023-04-07T14:26:19.686Z,3.60
2023-04-07T14:28:46.520Z,3.38
2023-04-07T14:31:14.851Z,3.20
2023-04-07T14:33:43.128Z,3.55
2023-04-07T14:36:10.256Z,3.33
2023-04-07T14:38:37.255Z,3.13
2023-04-07T14:43:33.925Z,3.40
2023-04-07T14:46:00.858Z,3.30
2023-04-07T14:48:27.795Z,3.33
2023-04-07T14:51:08.295Z,3.40
2023-04-07T14:53:36.411Z,3.50
2023-04-07T14:56:05.542Z,3.60
2023-04-07T14:58:32.954Z,3.20
2023-04-07T15:00:59.864Z,3.50
2023-04-07T15:03:27.081Z,3.57
2023-04-07T15:05:54.091Z,3.60
2023-04-07T15:08:20.993Z,3.63
2023-04-07T15:10:47.855Z,3.83
2023-04-07T15:13:14.841Z,3.50
2023-04-07T15:15:41.734Z,3.78
2023-04-07T15:18:08.621Z,3.90
2023-04-07T15:20:35.640Z,4.10
2023-04-07T15:23:02.501Z,4.20
2023-04-07T15:25:29.583Z,4.22
2023-04-07T15:27:56.460Z,4.20
2023-04-07T15:30:23.473Z,4.20
2023-04-07T15:33:00.826Z,4.80
2023-04-07T15:35:27.995Z,5.00
2023-04-07T15:37:54.848Z,4.80
2023-04-07T15:40:21.880Z,5.18
2023-04-07T15:42:48.799Z,5.10
2023-04-07T15:45:15.637Z,5.50
2023-04-07T15:47:42.532Z,5.18
2023-04-07T15:50:09.912Z,5.35
2023-04-07T15:52:36.804Z,5.50
2023-04-07T15:55:03.884Z,5.40
2023-04-07T15:57:30.755Z,5.60
2023-04-07T15:59:57.577Z,5.93
2023-04-07T16:02:24.605Z,6.00
2023-04-07T16:04:51.503Z,5.70
2023-04-07T16:07:18.643Z,6.90
2023-04-07T16:09:45.594Z,14.88
2023-04-07T16:12:12.731Z,8.90
2023-04-07T16:14:39.747Z,6.72
2023-04-07T16:17:06.642Z,5.90
2023-04-07T16:19:33.551Z,6.22
2023-04-07T16:22:00.433Z,6.60
2023-04-07T16:24:27.279Z,6.40
2023-04-07T16:26:54.195Z,6.67
2023-04-07T16:29:21.056Z,7.22
2023-04-07T16:31:48.149Z,7.20
2023-04-07T16:34:15.243Z,7.50
2023-04-07T16:36:42.183Z,7.50
2023-04-07T16:39:09.101Z,7.00
2023-04-07T16:41:35.982Z,7.80
2023-04-07T16:44:02.871Z,8.00
2023-04-07T16:46:30.506Z,7.57
2023-04-07T16:48:57.475Z,11.52
2023-04-07T16:51:24.328Z,19.70
2023-04-07T16:53:51.271Z,10.80
2023-04-07T16:56:18.904Z,8.05
2023-04-07T16:58:45.894Z,7.93
2023-04-07T17:01:12.887Z,7.72
2023-04-07T17:03:40.199Z,7.55
2023-04-07T17:06:07.478Z,7.80
2023-04-07T17:08:38.165Z,7.82
2023-04-07T17:11:09.385Z,7.53
2023-04-07T17:13:36.464Z,8.07
2023-04-07T17:16:04.176Z,7.43
2023-04-07T17:18:32.756Z,8.10
2023-04-07T17:20:59.638Z,7.60
2023-04-07T17:23:26.605Z,8.23
2023-04-07T17:25:53.653Z,7.80
2023-04-07T17:28:20.570Z,8.43
2023-04-07T17:30:47.427Z,8.00
2023-04-07T17:33:14.388Z,7.60
2023-04-07T17:35:41.251Z,16.70
2023-04-07T17:38:08.158Z,19.45
2023-04-07T17:40:35.058Z,9.40
2023-04-07T17:43:01.929Z,8.80
2023-04-07T17:45:28.896Z,8.27
2023-04-07T17:47:55.857Z,8.80
2023-04-07T17:50:22.703Z,8.13
2023-04-07T17:52:49.635Z,8.27
2023-04-07T17:55:16.519Z,8.77
2023-04-07T17:57:43.375Z,9.25
2023-04-07T18:00:10.659Z,9.20
2023-04-07T18:02:37.734Z,24.98
2023-04-07T18:05:06.926Z,13.68
2023-04-07T18:07:33.786Z,12.50
2023-04-07T18:10:00.785Z,9.85
2023-04-07T18:12:27.698Z,9.25
2023-04-07T18:14:54.584Z,9.30
2023-04-07T18:17:21.561Z,9.48
2023-04-07T18:19:48.881Z,9.47
2023-04-07T18:22:16.457Z,9.45
2023-04-07T18:24:43.461Z,9.20
2023-04-07T18:27:10.318Z,9.00
2023-04-07T18:29:37.231Z,8.97
2023-04-07T18:32:04.124Z,9.13
2023-04-07T18:34:30.988Z,8.45
2023-04-07T18:36:57.900Z,8.82
2023-04-07T18:39:24.810Z,12.57
2023-04-07T18:41:51.841Z,11.87
2023-04-07T18:44:18.662Z,15.60
2023-04-07T18:46:45.663Z,9.48
2023-04-07T18:49:12.862Z,8.70
2023-04-07T18:51:39.994Z,7.60
2023-04-07T18:54:06.881Z,7.53
2023-04-07T18:56:33.783Z,7.67
2023-04-07T18:59:00.658Z,7.60
2023-04-07T19:01:27.667Z,7.40
2023-04-07T19:03:54.678Z,6.68
2023-04-07T19:06:21.623Z,6.90
2023-04-07T19:08:48.556Z,7.40
2023-04-07T19:11:15.398Z,7.43
2023-04-07T19:13:42.261Z,7.25
2023-04-07T19:16:09.316Z,7.50
2023-04-07T19:18:36.193Z,9.10
2023-04-07T19:21:03.126Z,22.45
2023-04-07T19:23:30.079Z,18.45
2023-04-07T19:25:57.020Z,8.75
2023-04-07T19:28:23.889Z,7.68
2023-04-07T19:30:50.771Z,7.25
2023-04-07T19:33:17.674Z,7.60
2023-04-07T19:35:44.628Z,7.43
2023-04-07T19:38:11.513Z,7.60
2023-04-07T19:40:38.434Z,7.90
2023-04-07T19:43:05.351Z,7.63
2023-04-07T19:45:32.295Z,7.80
2023-04-07T19:47:59.329Z,7.70
2023-04-07T19:50:26.383Z,7.63
2023-04-07T19:52:53.314Z,8.00
2023-04-07T19:55:20.564Z,8.60
2023-04-07T19:57:47.424Z,8.10
2023-04-07T20:00:14.514Z,7.82
2023-04-07T20:02:41.560Z,9.00
2023-04-07T20:05:09.026Z,8.40
2023-04-07T20:07:36.388Z,24.80
2023-04-07T20:10:03.294Z,18.37
2023-04-07T20:12:30.256Z,11.90
2023-04-07T20:14:57.210Z,9.48
2023-04-07T20:17:24.129Z,10.80
2023-04-07T20:19:53.973Z,8.30
2023-04-07T20:22:20.828Z,8.30
2023-04-07T20:24:47.673Z,9.40
2023-04-07T20:27:14.539Z,8.80
2023-04-07T20:29:41.385Z,9.48
2023-04-07T20:32:08.262Z,8.90
2023-04-07T20:34:35.099Z,20.00
2023-04-07T20:37:01.924Z,16.02
2023-04-07T20:39:28.801Z,11.07
2023-04-07T20:41:55.694Z,8.95
2023-04-07T20:44:22.638Z,9.30
2023-04-07T20:46:49.490Z,8.80
2023-04-07T20:49:16.356Z,9.50
2023-04-07T20:51:43.225Z,9.00
2023-04-07T20:54:10.057Z,9.30
2023-04-07T20:56:36.924Z,9.52
2023-04-07T20:59:03.849Z,9.43
2023-04-07T21:01:30.807Z,9.60
2023-04-07T21:03:57.778Z,9.93
2023-04-07T21:06:24.836Z,16.05
2023-04-07T21:08:51.683Z,15.02
2023-04-07T21:11:18.525Z,12.73
2023-04-07T21:13:45.457Z,10.90
2023-04-07T21:16:12.895Z,10.70
2023-04-07T21:18:40.149Z,11.10
2023-04-07T21:21:07.019Z,10.47
2023-04-07T21:23:34.396Z,11.13
2023-04-07T21:26:04.368Z,11.93
2023-04-07T21:28:31.247Z,11.27
2023-04-07T21:30:58.670Z,12.82
2023-04-07T21:33:25.610Z,12.20
2023-04-07T21:35:52.715Z,11.02
2023-04-07T21:38:19.951Z,12.00
2023-04-07T21:40:47.270Z,11.93
2023-04-07T21:43:14.509Z,11.38
2023-04-07T21:45:41.522Z,13.13
2023-04-07T21:48:08.655Z,12.95
2023-04-07T21:50:36.914Z,15.75
2023-04-07T21:53:04.106Z,12.98
2023-04-07T21:55:31.152Z,13.57
2023-04-07T21:57:58.174Z,14.20
2023-04-07T22:00:25.076Z,13.73
2023-04-07T22:02:52.154Z,14.38
2023-04-07T22:05:19.326Z,13.80
2023-04-07T22:07:46.265Z,14.55
2023-04-07T22:10:13.369Z,13.85
2023-04-07T22:12:40.954Z,14.93
2023-04-07T22:15:09.127Z,14.20
2023-04-07T22:17:35.994Z,15.07
2023-04-07T22:20:03.418Z,13.85
2023-04-07T22:22:30.250Z,15.23
2023-04-07T22:24:57.119Z,14.65
2023-04-07T22:27:24.009Z,14.37
2023-04-07T22:29:50.863Z,13.48
2023-04-07T22:32:17.906Z,13.30
2023-04-07T22:34:45.182Z,12.75
2023-04-07T22:37:12.247Z,12.90
2023-04-07T22:39:39.188Z,13.40
2023-04-07T22:42:06.203Z,13.63
2023-04-07T22:44:33.021Z,13.20
2023-04-07T22:46:59.923Z,14.05
2023-04-07T22:49:26.786Z,13.20
2023-04-07T22:51:54.534Z,12.82
2023-04-07T22:54:21.424Z,12.55
2023-04-07T22:56:48.321Z,13.18
2023-04-07T22:59:15.170Z,13.27
2023-04-07T23:01:42.109Z,16.97
2023-04-07T23:04:08.990Z,14.93
2023-04-07T23:06:35.916Z,15.43
2023-04-07T23:09:02.870Z,13.52
2023-04-07T23:11:29.758Z,13.10
2023-04-07T23:13:56.634Z,13.32
2023-04-07T23:16:23.692Z,13.30
2023-04-07T23:18:50.888Z,12.70
2023-04-07T23:21:17.925Z,12.80
2023-04-07T23:23:44.753Z,12.90
2023-04-07T23:26:11.554Z,13.00
2023-04-07T23:28:38.449Z,12.25
2023-04-07T23:31:05.415Z,12.50
2023-04-07T23:33:32.509Z,11.73
2023-04-07T23:35:59.753Z,11.68
2023-04-07T23:38:26.690Z,11.20
2023-04-07T23:40:53.558Z,10.80
2023-04-07T23:43:20.667Z,10.80
2023-04-07T23:45:47.767Z,11.20
2023-04-07T23:48:15.604Z,10.73
2023-04-07T23:50:42.514Z,10.55
2023-04-07T23:53:09.464Z,11.45
2023-04-07T23:55:36.318Z,11.05
2023-04-07T23:58:03.248Z,11.37
